Country
Station

 

Weather  for  Rutland State Automatic Weather Observing/Reporting System  -  United States    United States

  
13 °C (55 °F)
    
 
 

Current METAR for Rutland State Automatic Weather Observing/Reporting System is :

KRUT 191456Z AUTO 31006KT 9SM OVC005 13/13 A3001 RMK AO2 SLP179 60000 T01330133 51016 $

 

This is a report for Rutland State Automatic Weather Observing/Reporting System - United States.
 
The report was made 44 minutes ago, at 14:56 UTC .
The wind was blowing at a speed of 3.1 meters per second (6.9 miles per hour) from northwest (310°).
 
The temperature was 13 °C (55 °F), with a dew-point at 13 °C (55 °F).
The atmospheric pressure was 1016 hPa (30.01 inHg).
The relative humidity was 100.0%.
 
The sky was overcast from a height of 152 meter (500 feet)
 
The overall visibility was 14.5 kilometers (9.0 miles).
 

 
 
 
 

Country :   A   B   C   D   E   F   G   H   I   J   K   L   M   N   O   P   Q   R   S   T   U   V   W   Y   Z

 

Site Info  |  Disclaimer  |  Credits  |  Privacy
Contact us  |  Add to favorites
© 2013-2018 METARs - All rights reserved